Time;durP1;ratioP1;P1;durP2;ratioP2;P2;SDS_P1;SDS_P2;PMS_P1;PMS_P2;Temp;Humidity;BMP_temperature;BMP_pressure;BME280_temperature;BME280_humidity;BME280_pressure;Samples;Min_cycle;Max_cycle;Signal;HPM_P1;HPM_P2
2024/01/05 00:00:19;;;;;;;29.42;21.08;;;;;;;4.15;100.00;99086.72;4889730;29;20056;-78
2024/01/05 00:02:45;;;;;;;30.02;20.92;;;;;;;4.10;100.00;99090.50;4890258;29;20505;-78
2024/01/05 00:05:10;;;;;;;30.83;21.20;;;;;;;4.12;100.00;99087.78;4890175;29;20667;-79
2024/01/05 00:07:36;;;;;;;33.08;21.63;;;;;;;3.99;100.00;99080.03;4888359;29;20367;-79
2024/01/05 00:10:01;;;;;;;29.35;21.05;;;;;;;4.09;100.00;99074.94;4888416;29;20401;-77
2024/01/05 00:12:27;;;;;;;28.73;20.55;;;;;;;4.04;100.00;99082.28;4887951;29;20456;-80
2024/01/05 00:14:52;;;;;;;34.10;22.35;;;;;;;4.08;100.00;99078.50;4889871;29;20108;-79
2024/01/05 00:17:18;;;;;;;29.63;21.05;;;;;;;4.18;100.00;99071.66;4894498;29;20055;-80
2024/01/05 00:19:43;;;;;;;34.83;22.10;;;;;;;4.27;100.00;99065.75;4888143;29;20382;-80
2024/01/05 00:22:09;;;;;;;29.65;20.77;;;;;;;4.31;100.00;99064.56;4894511;29;20386;-78
2024/01/05 00:24:37;;;;;;;37.58;21.75;;;;;;;4.35;100.00;99050.34;4887184;29;20045;-79
2024/01/05 00:27:03;;;;;;;28.13;19.98;;;;;;;4.36;100.00;99046.75;4888734;29;20029;-78
2024/01/05 00:29:29;;;;;;;29.75;21.52;;;;;;;4.38;100.00;99044.88;4895164;29;20040;-80
2024/01/05 00:31:54;;;;;;;28.52;20.58;;;;;;;4.37;100.00;99040.59;4889476;29;20033;-79
2024/01/05 00:34:20;;;;;;;29.88;21.05;;;;;;;4.31;100.00;99038.44;4888011;29;20037;-80
2024/01/05 00:36:45;;;;;;;29.50;20.23;;;;;;;4.24;100.00;99047.66;4892863;29;20164;-80
2024/01/05 00:39:11;;;;;;;32.13;19.92;;;;;;;4.22;100.00;99046.97;4887559;29;20044;-78
2024/01/05 00:41:37;;;;;;;28.73;20.08;;;;;;;4.21;100.00;99042.69;4886016;29;20051;-79
2024/01/05 00:44:02;;;;;;;24.02;18.63;;;;;;;4.20;100.00;99041.03;4894793;29;20088;-81
2024/01/05 00:46:28;;;;;;;26.27;19.27;;;;;;;4.07;100.00;99035.03;4889845;29;20033;-80
2024/01/05 00:48:53;;;;;;;25.40;18.42;;;;;;;4.19;100.00;99049.81;4889038;29;20044;-79
2024/01/05 00:51:19;;;;;;;27.77;18.25;;;;;;;4.10;100.00;99050.50;4889633;29;20136;-79
2024/01/05 00:53:44;;;;;;;25.75;19.48;;;;;;;4.20;100.00;99046.25;4886961;29;20131;-79
2024/01/05 00:56:10;;;;;;;27.45;19.15;;;;;;;4.29;100.00;99056.03;4889693;29;20036;-79
2024/01/05 00:58:35;;;;;;;24.63;18.85;;;;;;;4.30;100.00;99057.66;4886387;29;20408;-79
2024/01/05 01:01:01;;;;;;;30.05;20.60;;;;;;;4.34;100.00;99048.66;4890880;29;20036;-79
2024/01/05 01:03:26;;;;;;;27.50;19.20;;;;;;;4.46;100.00;99050.34;4890490;29;20053;-79
2024/01/05 01:05:52;;;;;;;27.05;19.15;;;;;;;4.44;100.00;99047.00;4887533;29;20043;-80
2024/01/05 01:08:18;;;;;;;27.25;18.65;;;;;;;4.49;100.00;99051.88;4887943;29;20510;-80
2024/01/05 01:10:43;;;;;;;25.33;17.77;;;;;;;4.54;100.00;99066.25;4893409;29;20046;-80
2024/01/05 01:13:09;;;;;;;30.33;19.75;;;;;;;4.60;100.00;99058.91;4890620;29;20418;-80
2024/01/05 01:15:34;;;;;;;25.88;18.90;;;;;;;4.67;100.00;99060.09;4895719;29;20064;-80
2024/01/05 01:18:00;;;;;;;25.35;18.95;;;;;;;4.72;100.00;99063.19;4894924;29;20104;-79
2024/01/05 01:20:26;;;;;;;26.67;17.88;;;;;;;4.69;100.00;99063.44;4892813;29;20037;-78
2024/01/05 01:22:51;;;;;;;23.48;17.38;;;;;;;4.57;100.00;99064.38;4888458;29;20043;-79
2024/01/05 01:25:17;;;;;;;26.77;18.83;;;;;;;4.56;100.00;99065.31;4892488;29;20127;-78
2024/01/05 01:27:42;;;;;;;24.70;17.63;;;;;;;4.59;100.00;99067.72;4886316;29;20367;-78
2024/01/05 01:30:10;;;;;;;23.80;16.98;;;;;;;4.64;100.00;99070.81;4892139;29;20131;-77
2024/01/05 01:32:36;;;;;;;21.63;17.92;;;;;;;4.67;100.00;99075.78;4889565;29;20374;-79
2024/01/05 01:35:03;;;;;;;22.88;17.02;;;;;;;4.56;100.00;99070.53;4892188;29;20047;-79
2024/01/05 01:37:28;;;;;;;21.17;17.02;;;;;;;4.51;100.00;99071.72;4888992;29;20119;-79
2024/01/05 01:39:54;;;;;;;22.05;16.90;;;;;;;4.50;100.00;99059.63;4893162;29;20549;-78
2024/01/05 01:42:20;;;;;;;23.17;17.85;;;;;;;4.52;100.00;99065.56;4889314;29;20033;-80
2024/01/05 01:44:45;;;;;;;26.50;17.50;;;;;;;4.52;100.00;99072.56;4892825;29;20060;-80
2024/01/05 01:47:12;;;;;;;24.23;17.48;;;;;;;4.46;100.00;99060.81;4893280;29;20037;-78
2024/01/05 01:49:38;;;;;;;25.40;18.00;;;;;;;4.46;100.00;99052.97;4892627;29;20044;-79
2024/01/05 01:52:06;;;;;;;25.83;17.85;;;;;;;4.57;100.00;99049.53;4889015;29;20036;-81
2024/01/05 01:54:33;;;;;;;23.85;17.23;;;;;;;4.61;100.00;99050.13;4892234;29;20283;-79
2024/01/05 01:56:59;;;;;;;26.33;18.48;;;;;;;4.62;100.00;99057.00;4888896;29;20311;-79
2024/01/05 01:59:24;;;;;;;26.65;19.15;;;;;;;4.65;100.00;99051.56;4888358;29;20053;-78
2024/01/05 02:01:51;;;;;;;25.10;18.35;;;;;;;4.71;100.00;99044.06;4886235;29;20033;-79
2024/01/05 02:04:19;;;;;;;22.10;17.45;;;;;;;4.81;100.00;99046.81;4888407;29;20044;-77
2024/01/05 02:06:45;;;;;;;25.63;17.90;;;;;;;4.85;100.00;99043.00;4889643;29;20131;-78
2024/01/05 02:09:12;;;;;;;27.02;17.70;;;;;;;4.87;100.00;99046.34;4893218;29;20034;-79
2024/01/05 02:11:39;;;;;;;23.23;17.27;;;;;;;4.88;100.00;99043.59;4889006;29;20035;-79
2024/01/05 02:14:04;;;;;;;26.73;19.30;;;;;;;4.79;100.00;99040.84;4892413;29;20031;-79
2024/01/05 02:16:30;;;;;;;25.40;18.45;;;;;;;4.71;100.00;99027.56;4889298;29;20036;-79
2024/01/05 02:18:55;;;;;;;27.23;18.13;;;;;;;4.66;100.00;99017.44;4891132;29;20033;-79
2024/01/05 02:21:26;;;;;;;26.98;18.50;;;;;;;4.65;100.00;99025.44;4887632;29;20037;-80
2024/01/05 02:23:52;;;;;;;;;;;;;;;4.63;100.00;99011.63;4887569;29;20456;-80
2024/01/05 02:26:17;;;;;;;23.17;17.42;;;;;;;4.62;100.00;99010.81;4887326;29;20134;-81
2024/01/05 02:28:43;;;;;;;27.73;18.30;;;;;;;4.62;100.00;99016.03;4892914;29;20367;-81
2024/01/05 02:31:08;;;;;;;24.02;17.65;;;;;;;4.64;100.00;99021.16;4889878;29;20107;-81
2024/01/05 02:33:34;;;;;;;23.70;18.08;;;;;;;4.65;100.00;99020.19;4892202;29;20037;-80
2024/01/05 02:36:00;;;;;;;26.48;18.33;;;;;;;4.66;100.00;99025.28;4888864;29;20036;-79
2024/01/05 02:38:25;;;;;;;25.98;16.98;;;;;;;4.72;100.00;99030.03;4891020;29;20084;-82
2024/01/05 02:40:55;;;;;;;30.00;18.65;;;;;;;4.63;100.00;99016.88;4887232;29;20052;-78
2024/01/05 02:43:21;;;;;;;27.08;17.92;;;;;;;4.70;100.00;99028.50;4893621;29;20430;-78
2024/01/05 02:45:47;;;;;;;22.80;17.25;;;;;;;4.73;100.00;99031.72;4889596;29;20489;-80
2024/01/05 02:48:13;;;;;;;24.40;18.25;;;;;;;4.65;100.00;99025.44;4895223;29;20047;-79
2024/01/05 02:50:38;;;;;;;26.63;19.05;;;;;;;4.75;100.00;99018.53;4890214;29;20119;-79
2024/01/05 02:53:04;;;;;;;27.95;18.42;;;;;;;4.79;100.00;99020.78;4891888;29;20033;-79
2024/01/05 02:55:29;;;;;;;24.10;18.30;;;;;;;4.82;100.00;99001.44;4893649;29;20128;-79
2024/01/05 02:57:55;;;;;;;27.23;19.00;;;;;;;4.83;100.00;99003.09;4893275;29;20040;-78
2024/01/05 03:00:20;;;;;;;25.27;18.35;;;;;;;4.85;100.00;99002.00;4896198;29;20552;-80
2024/01/05 03:02:46;;;;;;;26.95;18.00;;;;;;;4.79;100.00;99006.88;4892661;29;20108;-80
2024/01/05 03:05:11;;;;;;;26.55;19.23;;;;;;;4.84;100.00;98999.50;4888526;29;20044;-79
2024/01/05 03:07:37;;;;;;;25.25;18.40;;;;;;;4.92;100.00;99008.41;4891325;29;20040;-79
2024/01/05 03:10:03;;;;;;;27.35;19.90;;;;;;;4.98;100.00;98996.66;4890876;29;20036;-80
2024/01/05 03:12:28;;;;;;;26.58;19.65;;;;;;;5.06;100.00;98999.50;4890620;29;20036;-80
2024/01/05 03:14:54;;;;;;;30.65;20.23;;;;;;;5.09;100.00;98999.25;4888713;29;20032;-80
2024/01/05 03:17:19;;;;;;;27.90;20.13;;;;;;;5.00;100.00;98999.97;4890864;29;20033;-80
2024/01/05 03:19:45;;;;;;;29.92;19.98;;;;;;;4.98;100.00;99006.28;4888059;29;20052;-79
2024/01/05 03:22:11;;;;;;;28.20;19.58;;;;;;;4.99;100.00;99008.78;4888392;29;20036;-78
2024/01/05 03:24:36;;;;;;;31.13;20.17;;;;;;;4.99;100.00;98998.31;4886025;29;20103;-78
2024/01/05 03:27:04;;;;;;;27.33;19.40;;;;;;;5.00;100.00;98991.31;4894895;29;20063;-80
2024/01/05 03:29:29;;;;;;;31.40;19.65;;;;;;;5.02;100.00;98992.81;4887035;29;20033;-80
2024/01/05 03:31:55;;;;;;;26.98;19.15;;;;;;;5.03;100.00;98981.41;4889439;29;20125;-79
2024/01/05 03:34:21;;;;;;;29.95;19.30;;;;;;;5.01;100.00;98970.25;4895481;29;20031;-79
2024/01/05 03:36:47;;;;;;;26.95;19.67;;;;;;;5.00;100.00;98963.38;4911117;29;20052;-79
2024/01/05 03:39:12;;;;;;;32.42;20.65;;;;;;;5.03;100.00;98962.28;4896332;29;20066;-81
2024/01/05 03:41:38;;;;;;;26.02;20.13;;;;;;;5.01;100.00;98951.94;4895593;29;20059;-79
2024/01/05 03:44:04;;;;;;;27.90;19.13;;;;;;;5.04;100.00;98933.41;4896037;29;20040;-78
2024/01/05 03:46:30;;;;;;;25.83;18.35;;;;;;;5.06;100.00;98935.91;4892442;29;20056;-80
2024/01/05 03:48:55;;;;;;;27.05;19.35;;;;;;;5.06;100.00;98939.34;4896115;29;20036;-80
2024/01/05 03:51:21;;;;;;;25.17;19.02;;;;;;;5.05;100.00;98963.84;4896203;29;20103;-78
2024/01/05 03:53:46;;;;;;;27.35;19.13;;;;;;;5.02;100.00;98965.84;4894366;29;20084;-80
2024/01/05 03:56:12;;;;;;;25.65;18.90;;;;;;;5.02;100.00;98971.91;4898896;29;20123;-78
2024/01/05 03:58:37;;;;;;;31.05;18.95;;;;;;;5.05;100.00;98963.84;4892798;29;20032;-79
2024/01/05 04:01:03;;;;;;;32.78;19.77;;;;;;;5.08;100.00;98955.72;4901300;29;20040;-80
2024/01/05 04:03:30;;;;;;;29.45;18.33;;;;;;;5.07;100.00;98942.78;4893914;29;20045;-80
2024/01/05 04:05:56;;;;;;;24.17;17.75;;;;;;;4.98;100.00;98943.53;4889636;29;20036;-80
2024/01/05 04:08:22;;;;;;;28.40;19.00;;;;;;;4.92;100.00;98952.69;4891262;29;20029;-80
2024/01/05 04:10:48;;;;;;;31.25;20.65;;;;;;;4.93;100.00;98954.34;4890151;29;20491;-78
2024/01/05 04:13:14;;;;;;;27.08;19.30;;;;;;;4.95;100.00;98936.75;4890652;29;20056;-79
2024/01/05 04:15:40;;;;;;;22.30;18.05;;;;;;;4.98;100.00;98928.66;4891688;29;20128;-78
2024/01/05 04:18:06;;;;;;;25.08;19.70;;;;;;;4.99;100.00;98925.09;4887495;29;20497;-78
2024/01/05 04:20:32;;;;;;;25.40;19.05;;;;;;;5.03;100.00;98930.91;4887032;29;20052;-78
2024/01/05 04:22:59;;;;;;;26.63;18.02;;;;;;;5.05;100.00;98929.84;4885860;29;20045;-77
2024/01/05 04:25:24;;;;;;;28.23;19.73;;;;;;;5.07;100.00;98922.69;4886549;29;20068;-79
2024/01/05 04:27:51;;;;;;;28.88;18.67;;;;;;;5.07;100.00;98933.13;4888392;29;20063;-80
2024/01/05 04:30:17;;;;;;;26.67;19.33;;;;;;;5.08;100.00;98929.56;4890388;29;20045;-79
2024/01/05 04:32:45;;;;;;;23.05;18.23;;;;;;;5.11;100.00;98924.13;4887396;29;20047;-79
2024/01/05 04:35:10;;;;;;;26.67;19.40;;;;;;;5.14;100.00;98939.53;4890793;29;20060;-79
2024/01/05 04:37:36;;;;;;;26.63;18.88;;;;;;;5.17;100.00;98928.84;4887025;29;20165;-77
2024/01/05 04:40:02;;;;;;;24.70;18.42;;;;;;;5.16;100.00;98932.41;4887906;29;20044;-79
2024/01/05 04:42:28;;;;;;;28.80;18.75;;;;;;;5.16;100.00;98940.25;4888119;29;20044;-79
2024/01/05 04:44:53;;;;;;;27.98;19.13;;;;;;;5.23;100.00;98943.22;4892111;29;20409;-79
2024/01/05 04:47:19;;;;;;;25.50;18.08;;;;;;;5.25;100.00;98949.13;4890347;29;20037;-78
2024/01/05 04:49:44;;;;;;;24.02;18.48;;;;;;;5.22;100.00;98941.56;4892984;29;20119;-78
2024/01/05 04:52:11;;;;;;;26.58;19.00;;;;;;;5.30;100.00;98944.41;4891928;29;20212;-78
2024/01/05 04:54:36;;;;;;;26.45;19.17;;;;;;;5.32;100.00;98953.75;4893912;29;20365;-78
2024/01/05 04:57:02;;;;;;;26.58;19.08;;;;;;;5.36;100.00;98970.84;4891576;29;20044;-80
2024/01/05 04:59:28;;;;;;;28.13;18.73;;;;;;;5.38;100.00;98956.81;4890732;29;20048;-80
2024/01/05 05:01:54;;;;;;;25.35;17.75;;;;;;;5.42;100.00;98953.03;4898238;29;20056;-81
2024/01/05 05:04:19;;;;;;;29.13;19.33;;;;;;;5.43;100.00;98959.91;4893049;29;20033;-79
2024/01/05 05:06:46;;;;;;;23.40;17.80;;;;;;;5.46;100.00;98959.66;4890599;29;20079;-78
2024/01/05 05:09:12;;;;;;;23.60;18.23;;;;;;;5.44;100.00;98969.41;4894253;29;20116;-84
2024/01/05 05:11:41;;;;;;;28.10;19.50;;;;;;;5.42;100.00;98971.34;4908318;29;20024;-83
2024/01/05 05:14:06;;;;;;;29.38;19.00;;;;;;;5.39;100.00;98963.72;4908940;29;20499;-84
2024/01/05 05:16:33;;;;;;;27.90;18.80;;;;;;;5.36;100.00;98952.53;4892851;29;20060;-85
2024/01/05 05:18:58;;;;;;;23.02;18.30;;;;;;;5.38;100.00;98962.91;4891819;29;20120;-85
2024/01/05 05:26:41;;;;;;;26.52;18.92;;;;;;;5.35;100.00;98947.47;4926137;29;20404;-79
2024/01/05 05:29:07;;;;;;;24.20;16.48;;;;;;;5.33;100.00;98944.97;4931070;29;20031;-80
2024/01/05 05:31:32;;;;;;;22.17;17.98;;;;;;;5.31;100.00;98946.03;4925798;28;20035;-79
2024/01/05 05:33:58;;;;;;;23.25;16.98;;;;;;;5.32;100.00;98948.53;4928711;29;20087;-78
2024/01/05 05:36:23;;;;;;;21.63;16.60;;;;;;;5.35;100.00;98950.91;4931760;29;20131;-79
2024/01/05 05:38:49;;;;;;;24.25;16.70;;;;;;;5.36;100.00;98952.53;4907575;29;20448;-77
2024/01/05 05:41:14;;;;;;;21.25;16.52;;;;;;;5.36;100.00;98954.31;4933111;29;20051;-76
2024/01/05 05:43:40;;;;;;;19.20;16.08;;;;;;;5.38;100.00;98955.03;4926803;29;20031;-78
2024/01/05 05:46:06;;;;;;;22.17;15.98;;;;;;;5.41;100.00;98961.81;4926851;29;20028;-79
2024/01/05 05:48:31;;;;;;;24.98;17.35;;;;;;;5.44;100.00;98961.56;4932351;29;20086;-78
2024/01/05 05:50:57;;;;;;;21.33;16.38;;;;;;;5.47;100.00;98956.09;4929319;29;20040;-77
2024/01/05 05:53:22;;;;;;;22.70;17.10;;;;;;;5.46;100.00;98944.78;4926802;29;20064;-79
2024/01/05 05:55:48;;;;;;;25.42;17.35;;;;;;;5.46;100.00;98943.97;4929214;29;20074;-78
2024/01/05 05:58:14;;;;;;;24.42;18.08;;;;;;;5.48;100.00;98942.06;4925827;29;20044;-78
2024/01/05 06:00:39;;;;;;;23.77;17.92;;;;;;;5.48;100.00;98934.22;4926422;29;20067;-79
2024/01/05 06:03:08;;;;;;;24.92;19.15;;;;;;;5.48;100.00;98936.84;4927125;29;20087;-79
2024/01/05 06:05:34;;;;;;;23.85;17.95;;;;;;;5.49;100.00;98933.22;4930023;29;20416;-77
2024/01/05 06:08:00;;;;;;;23.60;20.15;;;;;;;5.49;100.00;98934.06;4928736;29;20054;-78
2024/01/05 06:10:25;;;;;;;28.13;19.95;;;;;;;5.50;100.00;98940.13;4929031;29;20457;-79
2024/01/05 06:12:52;;;;;;;26.67;20.88;;;;;;;5.50;100.00;98950.59;4930660;29;20028;-78
2024/01/05 06:15:17;;;;;;;32.35;23.33;;;;;;;5.50;100.00;98947.97;4927392;29;20038;-77
2024/01/05 06:17:43;;;;;;;33.63;24.40;;;;;;;5.49;100.00;98944.53;4924605;29;20040;-77
2024/01/05 06:20:09;;;;;;;38.60;25.77;;;;;;;5.50;100.00;98943.59;4930836;29;20051;-78
2024/01/05 06:22:34;;;;;;;39.53;25.77;;;;;;;5.50;100.00;98940.13;4926350;29;20389;-79
2024/01/05 06:25:00;;;;;;;37.85;27.35;;;;;;;5.50;100.00;98935.72;4930402;29;20039;-77
2024/01/05 06:27:25;;;;;;;45.10;29.33;;;;;;;5.51;100.00;98931.34;4928268;28;20036;-79
2024/01/05 06:29:51;;;;;;;43.35;28.45;;;;;;;5.50;100.00;98940.97;4930774;29;20035;-79
2024/01/05 06:32:16;;;;;;;42.53;29.98;;;;;;;5.52;100.00;98943.47;4926628;29;20031;-77
2024/01/05 06:34:42;;;;;;;48.00;31.52;;;;;;;5.51;100.00;98940.00;4924121;29;20043;-78
2024/01/05 06:37:07;;;;;;;50.17;31.25;;;;;;;5.50;100.00;98940.97;4926475;29;20110;-78
2024/01/05 06:39:33;;;;;;;43.78;30.42;;;;;;;5.50;100.00;98932.28;4926725;28;20555;-76
2024/01/05 06:41:58;;;;;;;47.00;30.20;;;;;;;5.49;100.00;98930.63;4927361;29;20110;-77
2024/01/05 06:44:24;;;;;;;49.20;31.10;;;;;;;5.49;100.00;98933.22;4926448;29;20032;-79
2024/01/05 06:46:52;;;;;;;47.05;31.15;;;;;;;5.50;100.00;98934.91;4928992;28;20131;-79
2024/01/05 06:49:18;;;;;;;47.53;31.48;;;;;;;5.51;100.00;98937.41;4926166;29;20062;-78
2024/01/05 06:51:44;;;;;;;47.35;33.08;;;;;;;5.52;100.00;98938.22;4925114;29;20044;-77
2024/01/05 06:54:13;;;;;;;53.88;33.83;;;;;;;5.52;100.00;98927.75;4927582;29;20484;-77
2024/01/05 06:56:42;;;;;;;50.25;32.97;;;;;;;5.50;100.00;98921.81;4927707;29;20030;-77
2024/01/05 06:59:08;;;;;;;50.13;33.00;;;;;;;5.48;100.00;98921.13;4933088;29;20059;-78
2024/01/05 07:01:33;;;;;;;49.75;32.33;;;;;;;5.50;100.00;98934.91;4924305;29;20432;-76
2024/01/05 07:03:59;;;;;;;53.83;33.63;;;;;;;5.51;100.00;98944.41;4925609;29;20038;-76
2024/01/05 07:06:24;;;;;;;49.85;30.85;;;;;;;5.50;100.00;98950.59;4923093;29;20051;-75
2024/01/05 07:08:50;;;;;;;48.17;32.88;;;;;;;5.52;100.00;98956.53;4925347;29;20179;-76
2024/01/05 07:11:22;;;;;;;53.42;33.17;;;;;;;5.54;100.00;98941.53;4926959;29;20083;-76
2024/01/05 07:13:49;;;;;;;51.30;32.72;;;;;;;5.54;100.00;98950.22;4927144;29;20036;-75
2024/01/05 07:16:18;;;;;;;49.63;33.85;;;;;;;5.51;100.00;98952.25;4925163;29;20149;-76
2024/01/05 07:18:46;;;;;;;54.60;34.50;;;;;;;5.50;100.00;98950.59;4925581;29;20083;-78
2024/01/05 07:21:12;;;;;;;50.05;32.65;;;;;;;5.49;100.00;98954.16;4920869;29;20389;-76
2024/01/05 07:23:37;;;;;;;47.67;31.63;;;;;;;5.51;100.00;98949.66;4926132;29;20044;-77
2024/01/05 07:26:03;;;;;;;49.30;31.65;;;;;;;5.50;100.00;98945.38;4925768;29;20047;-76
2024/01/05 07:28:29;;;;;;;45.67;30.38;;;;;;;5.49;100.00;98948.94;4928009;29;20034;-77
2024/01/05 07:30:54;;;;;;;49.17;30.17;;;;;;;5.47;100.00;98945.63;4922354;29;20181;-80
2024/01/05 07:33:20;;;;;;;43.92;30.15;;;;;;;5.46;100.00;98943.97;4920769;29;20087;-79
2024/01/05 07:35:45;;;;;;;51.05;32.30;;;;;;;5.47;100.00;98935.16;4929533;29;20503;-78
2024/01/05 07:38:11;;;;;;;52.70;30.60;;;;;;;5.48;100.00;98942.06;4922735;29;20047;-76
2024/01/05 07:40:36;;;;;;;46.20;30.63;;;;;;;5.48;100.00;98937.63;4921080;29;20078;-76
2024/01/05 07:43:02;;;;;;;45.45;29.67;;;;;;;5.51;100.00;98944.41;4923340;29;20091;-77
2024/01/05 07:45:28;;;;;;;48.55;31.63;;;;;;;5.53;100.00;98935.50;4927181;29;20028;-76
2024/01/05 07:47:55;;;;;;;46.13;29.88;;;;;;;5.55;100.00;98943.19;4927329;29;20071;-79
2024/01/05 07:50:21;;;;;;;46.22;31.30;;;;;;;5.55;100.00;98945.81;4929631;29;20036;-78
2024/01/05 07:52:46;;;;;;;53.35;31.60;;;;;;;5.55;100.00;98951.03;4924317;29;20534;-78
2024/01/05 07:55:12;;;;;;;50.78;31.50;;;;;;;5.53;100.00;98940.72;4928105;29;20441;-78
2024/01/05 07:57:37;;;;;;;48.03;31.30;;;;;;;5.55;100.00;98938.78;4928891;29;20480;-78
2024/01/05 08:00:03;;;;;;;51.13;31.70;;;;;;;5.54;100.00;98941.53;4924146;29;20477;-77
2024/01/05 08:02:30;;;;;;;54.15;32.30;;;;;;;5.57;100.00;98941.28;4927388;29;20031;-78
2024/01/05 08:04:56;;;;;;;56.25;33.33;;;;;;;5.58;100.00;98937.72;4922670;29;20469;-78
2024/01/05 08:07:21;;;;;;;52.75;32.63;;;;;;;5.58;100.00;98937.72;4927308;29;20391;-78
2024/01/05 08:09:52;;;;;;;56.88;34.08;;;;;;;5.59;100.00;98939.41;4923762;29;20414;-79
2024/01/05 08:12:19;;;;;;;49.50;33.15;;;;;;;5.63;100.00;98951.25;4925450;29;20118;-78
2024/01/05 08:14:45;;;;;;;53.47;33.38;;;;;;;5.65;100.00;98944.97;4922783;29;20024;-79
2024/01/05 08:17:11;;;;;;;54.72;33.17;;;;;;;5.67;100.00;98953.50;4927723;29;20056;-77
2024/01/05 08:19:36;;;;;;;55.47;33.20;;;;;;;5.69;100.00;98961.22;4923365;29;20032;-78
2024/01/05 08:22:02;;;;;;;52.88;32.75;;;;;;;5.67;100.00;98952.66;4931707;29;20484;-78
2024/01/05 08:24:27;;;;;;;55.85;35.80;;;;;;;5.58;100.00;98958.66;4926896;29;20044;-79
2024/01/05 08:26:54;;;;;;;56.72;33.72;;;;;;;5.53;100.00;98960.84;4931246;29;20055;-78
2024/01/05 08:29:21;;;;;;;56.78;35.17;;;;;;;5.52;100.00;98959.16;4926313;29;20037;-78
2024/01/05 08:31:48;;;;;;;58.47;35.13;;;;;;;5.49;100.00;98959.41;4929859;29;20035;-78
2024/01/05 08:34:14;;;;;;;59.67;35.50;;;;;;;5.48;100.00;98958.56;4928292;29;20059;-78
2024/01/05 08:36:39;;;;;;;62.55;35.85;;;;;;;5.51;100.00;98965.34;4930516;29;20488;-79
2024/01/05 08:39:05;;;;;;;62.05;35.55;;;;;;;5.54;100.00;98957.22;4927466;29;20035;-78
2024/01/05 08:41:31;;;;;;;58.20;35.33;;;;;;;5.59;100.00;98955.09;4930892;29;20067;-78
2024/01/05 08:43:57;;;;;;;56.95;35.35;;;;;;;5.61;100.00;98953.16;4927001;29;20681;-77
2024/01/05 08:46:22;;;;;;;56.63;33.40;;;;;;;5.60;100.00;98956.72;4931253;29;20032;-79
2024/01/05 08:48:48;;;;;;;54.35;33.65;;;;;;;5.53;100.00;98972.13;4928814;29;20088;-79
2024/01/05 08:51:14;;;;;;;55.53;34.13;;;;;;;5.48;100.00;98973.47;4931080;29;20034;-78
2024/01/05 08:53:41;;;;;;;54.83;34.40;;;;;;;5.48;100.00;98968.22;4925997;29;20493;-78
2024/01/05 08:56:08;;;;;;;53.90;33.78;;;;;;;5.50;100.00;98966.31;4930402;29;20040;-77
2024/01/05 08:58:34;;;;;;;63.70;34.22;;;;;;;5.52;100.00;98965.22;4926432;29;20035;-79
2024/01/05 09:01:00;;;;;;;53.85;32.80;;;;;;;5.49;100.00;98969.88;4930906;29;20063;-79
2024/01/05 09:03:25;;;;;;;49.33;31.05;;;;;;;5.40;100.00;98966.22;4926820;29;20509;-79
2024/01/05 09:05:51;;;;;;;54.15;32.70;;;;;;;5.26;100.00;98959.50;4929344;29;20114;-78
2024/01/05 09:08:18;;;;;;;52.28;31.90;;;;;;;5.36;100.00;98949.94;4928310;29;20385;-79
2024/01/05 09:10:43;;;;;;;51.15;32.78;;;;;;;5.45;100.00;98934.44;4927106;29;20050;-78
2024/01/05 09:13:09;;;;;;;52.88;33.42;;;;;;;5.49;100.00;98923.59;4926373;29;20020;-78
2024/01/05 09:15:35;;;;;;;54.38;33.22;;;;;;;5.53;100.00;98921.56;4945882;29;20050;-77
2024/01/05 09:18:01;;;;;;;54.75;34.38;;;;;;;5.57;100.00;98920.34;4937485;28;20080;-79
2024/01/05 09:20:26;;;;;;;54.92;32.05;;;;;;;5.60;100.00;98914.84;4939844;23;20582;-74
2024/01/05 09:22:52;;;;;;;50.47;32.22;;;;;;;5.61;100.00;98916.53;4872401;29;20041;-75
2024/01/05 09:25:17;;;;;;;54.28;33.05;;;;;;;5.64;100.00;98922.34;4892695;29;20063;-75
2024/01/05 09:27:43;;;;;;;55.65;34.15;;;;;;;5.67;100.00;98924.69;4884585;29;20045;-74
2024/01/05 09:30:08;;;;;;;51.97;32.60;;;;;;;5.68;100.00;98933.38;4891606;29;20065;-74
2024/01/05 09:32:34;;;;;;;54.17;34.33;;;;;;;5.68;100.00;98928.16;4888392;29;20111;-74
2024/01/05 09:34:59;;;;;;;47.20;29.38;;;;;;;5.70;100.00;98915.78;4891661;29;20433;-73
2024/01/05 09:37:25;;;;;;;51.40;31.35;;;;;;;5.74;100.00;98917.16;4888554;29;20049;-74
2024/01/05 09:39:52;;;;;;;51.67;32.55;;;;;;;5.67;100.00;98921.25;4891089;29;20036;-75
2024/01/05 09:42:17;;;;;;;47.58;32.22;;;;;;;5.71;100.00;98922.69;4892374;29;20139;-73
2024/01/05 09:44:46;;;;;;;49.95;32.55;;;;;;;5.69;100.00;98919.34;4891705;29;20048;-73
2024/01/05 09:47:13;;;;;;;49.58;31.92;;;;;;;5.56;100.00;98919.53;4885767;29;20032;-75
2024/01/05 09:49:44;;;;;;;49.97;31.25;;;;;;;5.45;100.00;98913.50;4887959;29;20028;-74
2024/01/05 09:52:12;;;;;;;46.30;30.50;;;;;;;5.57;100.00;98915.13;4888363;29;20037;-75
2024/01/05 09:54:38;;;;;;;48.70;29.95;;;;;;;5.49;100.00;98928.84;4887671;29;20036;-74
2024/01/05 09:57:05;;;;;;;47.05;30.75;;;;;;;5.52;100.00;98927.75;4887789;29;20029;-74
2024/01/05 09:59:31;;;;;;;49.55;31.40;;;;;;;5.56;100.00;98923.94;4887820;29;20097;-73
2024/01/05 10:02:04;;;;;;;46.50;30.25;;;;;;;5.58;100.00;98917.63;4890303;29;20458;-74
2024/01/05 10:04:30;;;;;;;47.42;30.58;;;;;;;5.60;100.00;98904.38;4891389;29;20059;-74
2024/01/05 10:07:00;;;;;;;47.28;31.10;;;;;;;5.61;100.00;98906.06;4890211;29;20485;-75
2024/01/05 10:09:28;;;;;;;49.85;31.90;;;;;;;5.36;100.00;98912.47;4889243;29;20044;-74
2024/01/05 10:11:54;;;;;;;50.05;31.95;;;;;;;5.42;100.00;98911.16;4890304;29;20496;-75
2024/01/05 10:14:24;;;;;;;47.92;30.30;;;;;;;5.49;100.00;98912.28;4888168;29;20048;-73
2024/01/05 10:16:50;;;;;;;51.13;31.40;;;;;;;5.49;100.00;98902.66;4892523;29;20134;-73
2024/01/05 10:19:17;;;;;;;54.15;32.90;;;;;;;5.36;100.00;98908.06;4888096;29;20092;-73
2024/01/05 10:21:47;;;;;;;50.15;32.45;;;;;;;5.34;100.00;98904.78;4898254;29;20060;-74
2024/01/05 10:24:29;;;;;;;55.17;33.63;;;;;;;5.26;100.00;98912.41;4886611;29;20170;-74
2024/01/05 10:27:10;;;;;;;53.28;33.58;;;;;;;5.18;100.00;98904.38;4888533;29;20330;-75
2024/01/05 10:29:44;;;;;;;51.97;32.72;;;;;;;5.30;100.00;98900.72;4889972;29;20041;-76
2024/01/05 10:32:19;;;;;;;56.00;34.10;;;;;;;5.38;100.00;98909.72;4886454;29;20064;-73
2024/01/05 10:34:49;;;;;;;55.80;34.67;;;;;;;5.16;100.00;98903.66;4889079;29;20033;-76
2024/01/05 10:37:16;;;;;;;51.50;33.80;;;;;;;5.07;100.00;98907.00;4888407;29;20735;-75
2024/01/05 10:39:51;;;;;;;53.33;33.67;;;;;;;4.99;100.00;98904.19;4891359;29;20067;-75
2024/01/05 10:42:28;;;;;;;55.38;35.28;;;;;;;5.08;100.00;98903.44;4889241;29;20108;-75
2024/01/05 10:44:56;;;;;;;58.40;36.70;;;;;;;5.15;100.00;98909.84;4892441;29;20032;-75
2024/01/05 10:47:31;;;;;;;58.25;36.55;;;;;;;5.10;100.00;98891.06;4888479;29;20040;-74
2024/01/05 10:49:57;;;;;;;56.45;35.17;;;;;;;5.20;100.00;98888.53;4888835;29;20044;-74
2024/01/05 10:52:27;;;;;;;58.65;36.95;;;;;;;5.17;100.00;98900.09;4889192;29;20048;-74
2024/01/05 10:54:53;;;;;;;56.75;35.85;;;;;;;5.17;100.00;98897.47;4891229;29;20037;-74
2024/01/05 10:57:20;;;;;;;59.17;36.30;;;;;;;5.14;100.00;98892.47;4889998;29;20519;-74
2024/01/05 10:59:46;;;;;;;56.65;34.95;;;;;;;5.11;100.00;98903.19;4886790;29;20032;-74
2024/01/05 11:02:20;;;;;;;58.75;35.50;;;;;;;5.12;100.00;98886.56;4893239;29;20041;-74
2024/01/05 11:04:52;;;;;;;58.53;34.83;;;;;;;5.20;100.00;98889.34;4900131;29;20048;-75
2024/01/05 11:07:18;;;;;;;55.13;34.20;;;;;;;5.27;100.00;98877.44;4890269;29;20112;-73
2024/01/05 11:10:35;;;;;;;60.92;35.45;;;;;;;5.29;100.00;98870.31;4891374;29;20037;-73
2024/01/05 11:13:01;;;;;;;61.70;35.35;;;;;;;5.28;100.00;98863.41;4876158;29;20088;-75
2024/01/05 11:15:26;;;;;;;60.63;36.90;;;;;;;5.30;100.00;98861.47;4889813;29;20056;-74
2024/01/05 11:18:23;;;;;;;58.42;36.38;;;;;;;5.33;100.00;98857.78;4883714;29;20670;-75